createdAt,value
2023-03-21T00:00:03.844Z,8.23
2023-03-21T00:01:02.565Z,8.26
2023-03-21T00:02:02.490Z,8.13
2023-03-21T00:03:02.583Z,8.17
2023-03-21T00:04:02.508Z,8.14
2023-03-21T00:05:13.411Z,8.18
2023-03-21T00:06:02.293Z,8.16
2023-03-21T00:07:02.405Z,8.20
2023-03-21T00:08:02.799Z,8.20
2023-03-21T00:09:02.221Z,8.14
2023-03-21T00:10:14.399Z,8.13
2023-03-21T00:11:02.227Z,8.03
2023-03-21T00:12:02.289Z,8.03
2023-03-21T00:13:02.142Z,8.03
2023-03-21T00:14:01.896Z,8.02
2023-03-21T00:15:02.872Z,7.96
2023-03-21T00:16:05.382Z,7.93
2023-03-21T00:17:01.857Z,7.96
2023-03-21T00:18:01.738Z,7.91
2023-03-21T00:19:01.874Z,7.98
2023-03-21T00:20:01.617Z,7.83
2023-03-21T00:22:08.080Z,7.88
2023-03-21T00:23:01.488Z,7.83
2023-03-21T00:24:01.804Z,7.75
2023-03-21T00:25:01.393Z,7.70
2023-03-21T00:26:01.419Z,7.74
2023-03-21T00:27:26.500Z,7.75
2023-03-21T00:28:08.356Z,7.75
2023-03-21T00:29:01.218Z,7.75
2023-03-21T00:30:01.209Z,7.78
2023-03-21T00:31:02.271Z,7.64
2023-03-21T00:32:01.299Z,7.66
2023-03-21T00:33:05.882Z,7.66
2023-03-21T00:34:00.960Z,7.58
2023-03-21T00:35:25.852Z,7.62
2023-03-21T00:36:06.409Z,7.55
2023-03-21T00:37:00.826Z,7.56
2023-03-21T00:38:00.907Z,7.61
2023-03-21T00:39:00.758Z,7.50
2023-03-21T00:40:01.236Z,7.48
2023-03-21T00:41:04.672Z,7.56
2023-03-21T00:42:00.903Z,7.51
2023-03-21T00:43:00.549Z,7.44
2023-03-21T00:44:00.496Z,7.46
2023-03-21T00:45:00.459Z,7.56
2023-03-21T00:46:00.645Z,7.56
2023-03-21T00:47:07.216Z,7.41
2023-03-21T00:48:00.394Z,7.40
2023-03-21T00:49:00.458Z,7.39
2023-03-21T00:50:00.264Z,7.41
2023-03-21T00:51:00.174Z,7.33
2023-03-21T00:52:14.709Z,7.28
2023-03-21T00:53:00.102Z,7.28
2023-03-21T00:54:00.197Z,7.18
2023-03-21T00:54:59.981Z,7.14
2023-03-21T00:55:59.930Z,7.14
2023-03-21T00:57:00.003Z,7.14
2023-03-21T00:58:02.438Z,7.14
2023-03-21T00:59:00.036Z,7.13
2023-03-21T00:59:59.759Z,7.11
2023-03-21T01:00:59.747Z,7.05
2023-03-21T01:01:59.674Z,7.05
2023-03-21T01:03:08.526Z,6.97
2023-03-21T01:03:59.564Z,6.97
2023-03-21T01:04:59.654Z,6.92
2023-03-21T01:05:59.471Z,6.90
2023-03-21T01:06:59.433Z,7.00
2023-03-21T01:07:59.472Z,6.96
2023-03-21T01:08:59.500Z,6.96
2023-03-21T01:09:59.416Z,6.97
2023-03-21T01:10:59.246Z,7.00
2023-03-21T01:12:00.304Z,7.11
2023-03-21T01:12:59.151Z,6.93
2023-03-21T01:14:14.560Z,6.95
2023-03-21T01:15:00.196Z,6.92
2023-03-21T01:15:59.110Z,6.97
2023-03-21T01:16:58.955Z,7.00
2023-03-21T01:17:59.108Z,6.90
2023-03-21T01:18:58.854Z,6.87
2023-03-21T01:19:58.916Z,6.90
2023-03-21T01:20:58.802Z,6.89
2023-03-21T01:21:58.934Z,6.85
2023-03-21T01:22:58.666Z,6.87
2023-03-21T01:23:58.623Z,6.90
2023-03-21T01:25:05.885Z,6.92
2023-03-21T01:25:58.548Z,6.86
2023-03-21T01:26:58.774Z,6.89
2023-03-21T01:27:58.449Z,6.95
2023-03-21T01:28:58.599Z,6.87
2023-03-21T01:29:58.690Z,6.78
2023-03-21T01:30:58.412Z,6.90
2023-03-21T01:31:58.264Z,6.78
2023-03-21T01:32:58.525Z,6.86
2023-03-21T01:33:58.180Z,6.83
2023-03-21T01:34:58.336Z,6.80
2023-03-21T01:36:11.768Z,6.80
2023-03-21T01:36:58.225Z,6.74
2023-03-21T01:37:58.150Z,6.75
2023-03-21T01:38:57.931Z,6.83
2023-03-21T01:39:57.967Z,6.77
2023-03-21T01:40:58.034Z,6.78
2023-03-21T01:41:57.984Z,6.78
2023-03-21T01:42:58.038Z,6.82
2023-03-21T01:43:58.810Z,6.77
2023-03-21T01:44:57.633Z,6.80
2023-03-21T01:45:57.785Z,6.82
2023-03-21T01:47:09.765Z,6.85
2023-03-21T01:47:57.531Z,6.80
2023-03-21T01:48:57.519Z,6.83
2023-03-21T01:49:57.411Z,6.85
2023-03-21T01:50:57.535Z,6.80
2023-03-21T01:52:01.048Z,6.78
2023-03-21T01:52:57.266Z,6.77
2023-03-21T01:53:57.348Z,6.80
2023-03-21T01:54:57.410Z,6.72
2023-03-21T01:55:57.238Z,6.80
2023-03-21T01:56:57.112Z,6.72
2023-03-21T01:58:06.806Z,6.77
2023-03-21T01:58:56.976Z,6.77
2023-03-21T01:59:57.056Z,6.71
2023-03-21T02:00:57.058Z,6.72
2023-03-21T02:01:56.898Z,6.77
2023-03-21T02:03:06.083Z,6.83
2023-03-21T02:03:56.935Z,6.72
2023-03-21T02:04:56.698Z,6.72
2023-03-21T02:05:56.693Z,6.74
2023-03-21T02:06:56.610Z,6.71
2023-03-21T02:07:56.737Z,6.75
2023-03-21T02:08:56.524Z,6.80
2023-03-21T02:09:56.463Z,6.85
2023-03-21T02:10:56.419Z,6.80
2023-03-21T02:11:56.520Z,6.75
2023-03-21T02:12:56.428Z,6.71
2023-03-21T02:14:06.395Z,6.77
2023-03-21T02:14:56.226Z,6.72
2023-03-21T02:15:56.194Z,6.72
2023-03-21T02:16:56.289Z,6.75
2023-03-21T02:17:56.114Z,6.71
2023-03-21T02:18:57.242Z,6.71
2023-03-21T02:19:56.276Z,6.62
2023-03-21T02:20:55.948Z,6.59
2023-03-21T02:21:55.902Z,6.59
2023-03-21T02:22:55.938Z,6.59
2023-03-21T02:23:55.803Z,6.53
2023-03-21T02:25:01.375Z,6.50
2023-03-21T02:25:55.779Z,6.49
2023-03-21T02:27:03.548Z,6.56
2023-03-21T02:27:55.774Z,6.53
2023-03-21T02:28:55.622Z,6.50
2023-03-21T02:29:55.746Z,6.46
2023-03-21T02:30:55.891Z,6.49
2023-03-21T02:32:00.874Z,6.49
2023-03-21T02:32:55.495Z,6.50
2023-03-21T02:33:55.455Z,6.47
2023-03-21T02:34:55.298Z,6.54
2023-03-21T02:35:58.613Z,6.54
2023-03-21T02:36:55.215Z,6.52
2023-03-21T02:38:00.633Z,6.52
2023-03-21T02:38:55.098Z,6.56
2023-03-21T02:39:55.094Z,6.59
2023-03-21T02:40:55.011Z,6.52
2023-03-21T02:41:55.160Z,6.60
2023-03-21T02:43:00.127Z,6.59
2023-03-21T02:43:54.865Z,6.49
2023-03-21T02:44:54.819Z,6.54
2023-03-21T02:45:55.015Z,6.57
2023-03-21T02:47:04.739Z,6.67
2023-03-21T02:47:54.704Z,6.52
2023-03-21T02:48:54.845Z,6.59
2023-03-21T02:49:54.746Z,6.56
2023-03-21T02:50:54.536Z,6.62
2023-03-21T02:51:54.899Z,6.46
2023-03-21T02:52:54.448Z,6.50
2023-03-21T02:54:21.921Z,6.44
2023-03-21T02:54:54.372Z,6.44
2023-03-21T02:55:54.329Z,6.39
2023-03-21T02:56:55.401Z,6.38
2023-03-21T02:57:54.225Z,6.34
2023-03-21T02:58:54.310Z,6.36
2023-03-21T02:59:58.591Z,6.31
2023-03-21T03:00:54.065Z,6.34
2023-03-21T03:01:54.216Z,6.29
2023-03-21T03:03:06.335Z,6.31
2023-03-21T03:03:53.965Z,6.31
2023-03-21T03:04:54.145Z,6.25
2023-03-21T03:05:53.867Z,6.25
2023-03-21T03:06:53.810Z,6.26
2023-03-21T03:07:53.753Z,6.25
2023-03-21T03:09:02.305Z,6.15
2023-03-21T03:09:53.666Z,6.15
2023-03-21T03:10:53.825Z,6.15
2023-03-21T03:11:53.690Z,6.22
2023-03-21T03:12:53.511Z,6.07
2023-03-21T03:13:53.645Z,6.17
2023-03-21T03:15:03.060Z,6.16
2023-03-21T03:15:53.388Z,6.10
2023-03-21T03:16:53.413Z,6.12
2023-03-21T03:17:53.266Z,6.13
2023-03-21T03:18:53.219Z,6.10
2023-03-21T03:19:53.655Z,5.97
2023-03-21T03:20:53.182Z,6.02
2023-03-21T03:21:53.136Z,6.12
2023-03-21T03:22:53.028Z,6.06
2023-03-21T03:23:52.987Z,6.02
2023-03-21T03:24:52.939Z,6.12
2023-03-21T03:25:53.017Z,5.99
2023-03-21T03:26:52.866Z,6.13
2023-03-21T03:27:53.129Z,6.10
2023-03-21T03:28:52.751Z,6.09
2023-03-21T03:29:52.706Z,6.12
2023-03-21T03:31:07.396Z,6.12
2023-03-21T03:31:52.684Z,6.09
2023-03-21T03:32:52.762Z,6.06
2023-03-21T03:33:52.516Z,6.01
2023-03-21T03:34:52.533Z,6.01
2023-03-21T03:36:04.635Z,5.97
2023-03-21T03:36:52.439Z,5.95
2023-03-21T03:37:52.759Z,5.97
2023-03-21T03:38:52.269Z,5.88
2023-03-21T03:39:52.352Z,5.95
2023-03-21T03:40:52.181Z,5.87
2023-03-21T03:42:53.195Z,5.81
2023-03-21T03:43:52.073Z,5.80
2023-03-21T03:44:52.281Z,5.81
2023-03-21T03:45:51.961Z,5.81
2023-03-21T03:46:51.920Z,5.70
2023-03-21T03:47:57.169Z,5.80
2023-03-21T03:48:51.902Z,5.73
2023-03-21T03:49:51.753Z,5.74
2023-03-21T03:50:52.024Z,5.74
2023-03-21T03:51:51.677Z,5.77
2023-03-21T03:52:57.181Z,5.70
2023-03-21T03:53:52.811Z,5.80
2023-03-21T03:54:51.519Z,5.76
2023-03-21T03:55:51.593Z,5.80
2023-03-21T03:56:51.430Z,5.87
2023-03-21T03:57:51.812Z,5.79
2023-03-21T03:58:51.324Z,5.80
2023-03-21T03:59:51.423Z,5.79
2023-03-21T04:00:51.229Z,5.80
2023-03-21T04:01:51.384Z,5.76
2023-03-21T04:02:51.216Z,5.74
2023-03-21T04:03:58.557Z,5.81
2023-03-21T04:04:52.171Z,5.80
2023-03-21T04:05:50.999Z,5.72
2023-03-21T04:06:51.060Z,5.88
2023-03-21T04:07:51.111Z,5.81
2023-03-21T04:08:52.103Z,5.80
2023-03-21T04:09:50.979Z,5.73
2023-03-21T04:10:50.938Z,5.74
2023-03-21T04:11:50.900Z,5.76
2023-03-21T04:12:50.676Z,5.74
2023-03-21T04:13:50.813Z,5.76
2023-03-21T04:14:50.572Z,5.76
2023-03-21T04:15:50.621Z,5.79
2023-03-21T04:16:50.714Z,5.81
2023-03-21T04:17:50.438Z,5.77
2023-03-21T04:18:50.537Z,5.69
2023-03-21T04:19:51.986Z,5.70
2023-03-21T04:20:50.280Z,5.69
2023-03-21T04:21:50.507Z,5.69
2023-03-21T04:22:50.401Z,5.73
2023-03-21T04:23:50.148Z,5.70
2023-03-21T04:24:50.211Z,5.70
2023-03-21T04:25:56.342Z,5.70
2023-03-21T04:26:50.013Z,5.72
2023-03-21T04:27:50.115Z,5.76
2023-03-21T04:28:49.914Z,5.76
2023-03-21T04:29:50.108Z,5.72
2023-03-21T04:31:01.398Z,5.79
2023-03-21T04:31:50.008Z,5.74
2023-03-21T04:32:49.739Z,5.77
2023-03-21T04:33:49.832Z,5.80
2023-03-21T04:34:49.620Z,5.83
2023-03-21T04:35:49.886Z,5.79
2023-03-21T04:36:49.529Z,5.79
2023-03-21T04:37:49.655Z,5.72
2023-03-21T04:38:49.940Z,5.80
2023-03-21T04:39:49.568Z,5.84
2023-03-21T04:40:49.337Z,5.76
2023-03-21T04:41:50.434Z,5.80
2023-03-21T04:42:49.249Z,5.80
2023-03-21T04:43:49.283Z,5.80
2023-03-21T04:44:49.174Z,5.74
2023-03-21T04:45:49.353Z,5.90
2023-03-21T04:46:49.046Z,5.81
2023-03-21T04:47:49.200Z,5.81
2023-03-21T04:48:48.950Z,5.87
2023-03-21T04:49:48.919Z,5.84
2023-03-21T04:50:49.049Z,5.87
2023-03-21T04:51:48.816Z,5.73
2023-03-21T04:52:48.987Z,5.81
2023-03-21T04:53:50.154Z,5.76
2023-03-21T04:54:48.858Z,5.70
2023-03-21T04:55:51.039Z,5.65
2023-03-21T04:56:48.775Z,5.64
2023-03-21T04:57:48.526Z,5.59
2023-03-21T04:58:48.578Z,5.59
2023-03-21T04:59:48.451Z,5.56
2023-03-21T05:00:56.602Z,5.51
2023-03-21T05:01:48.333Z,5.52
2023-03-21T05:02:48.327Z,5.54
2023-03-21T05:03:48.306Z,5.52
2023-03-21T05:04:48.428Z,5.49
2023-03-21T05:05:48.185Z,5.44
2023-03-21T05:06:48.097Z,5.46
2023-03-21T05:07:48.069Z,5.38
2023-03-21T05:08:48.162Z,5.37
2023-03-21T05:09:47.952Z,5.37
2023-03-21T05:10:48.049Z,5.36
2023-03-21T05:11:48.235Z,5.29
2023-03-21T05:12:47.814Z,5.25
2023-03-21T05:13:47.973Z,5.25
2023-03-21T05:14:47.721Z,5.28
2023-03-21T05:15:47.791Z,5.31
2023-03-21T05:16:47.668Z,5.29
2023-03-21T05:17:47.726Z,5.25
2023-03-21T05:18:47.524Z,5.34
2023-03-21T05:19:47.612Z,5.33
2023-03-21T05:20:47.438Z,5.37
2023-03-21T05:21:47.630Z,5.28
2023-03-21T05:22:47.781Z,5.36
2023-03-21T05:23:47.283Z,5.40
2023-03-21T05:24:47.242Z,5.44
2023-03-21T05:25:47.353Z,5.46
2023-03-21T05:26:47.145Z,5.49
2023-03-21T05:27:47.359Z,5.46
2023-03-21T05:28:47.078Z,5.47
2023-03-21T05:29:46.999Z,5.46
2023-03-21T05:30:47.144Z,5.56
2023-03-21T05:31:46.904Z,5.59
2023-03-21T05:32:47.100Z,5.51
2023-03-21T05:33:46.817Z,5.62
2023-03-21T05:34:47.022Z,5.56
2023-03-21T05:35:46.760Z,5.61
2023-03-21T05:36:46.937Z,5.62
2023-03-21T05:37:46.616Z,5.59
2023-03-21T05:38:46.723Z,5.62
2023-03-21T05:39:46.531Z,5.58
2023-03-21T05:40:46.478Z,5.55
2023-03-21T05:41:46.431Z,5.47
2023-03-21T05:42:46.543Z,5.47
2023-03-21T05:43:46.338Z,5.58
2023-03-21T05:44:46.556Z,5.56
2023-03-21T05:45:46.242Z,5.44
2023-03-21T05:46:46.199Z,5.55
2023-03-21T05:47:46.162Z,5.44
2023-03-21T05:48:46.394Z,5.52
2023-03-21T05:49:46.106Z,5.51
2023-03-21T05:50:46.296Z,5.46
2023-03-21T05:51:46.203Z,5.51
2023-03-21T05:52:45.916Z,5.55
2023-03-21T05:53:46.112Z,5.58
2023-03-21T05:54:45.836Z,5.54
2023-03-21T05:55:47.154Z,5.70
2023-03-21T05:56:45.722Z,5.62
2023-03-21T05:57:45.678Z,5.55
2023-03-21T05:58:45.635Z,5.73
2023-03-21T05:59:45.746Z,5.72
2023-03-21T06:03:48.062Z,5.64
2023-03-21T06:04:47.531Z,5.65
2023-03-21T06:05:48.776Z,5.65
2023-03-21T06:06:47.449Z,5.64
2023-03-21T06:07:47.552Z,5.64
2023-03-21T06:08:47.337Z,5.65
2023-03-21T06:09:47.311Z,5.59
2023-03-21T06:10:47.300Z,5.61
2023-03-21T06:11:47.429Z,5.61
2023-03-21T06:12:47.382Z,5.65
2023-03-21T06:13:47.096Z,5.70
2023-03-21T06:14:47.052Z,5.74
2023-03-21T06:15:47.061Z,5.88
2023-03-21T06:16:47.325Z,5.87
2023-03-21T06:17:46.910Z,5.90
2023-03-21T06:18:46.933Z,5.94
2023-03-21T06:19:46.816Z,5.97
2023-03-21T06:20:46.784Z,6.02
2023-03-21T06:21:46.770Z,6.05
2023-03-21T06:22:46.698Z,6.07
2023-03-21T06:23:47.868Z,6.05
2023-03-21T06:24:46.580Z,6.07
2023-03-21T06:25:46.668Z,6.17
2023-03-21T06:26:46.502Z,6.07
2023-03-21T06:27:46.600Z,6.22
2023-03-21T06:28:46.451Z,6.06
2023-03-21T06:29:46.500Z,6.07
2023-03-21T06:30:46.314Z,6.20
2023-03-21T06:31:46.310Z,6.31
2023-03-21T06:32:46.201Z,6.26
2023-03-21T06:33:46.407Z,6.39
2023-03-21T06:34:46.262Z,6.36
2023-03-21T06:35:46.232Z,6.43
2023-03-21T06:36:46.115Z,6.53
2023-03-21T06:37:45.969Z,6.52
2023-03-21T06:38:45.925Z,6.54
2023-03-21T06:39:45.947Z,6.71
2023-03-21T06:40:45.820Z,6.80
2023-03-21T06:41:46.077Z,6.74
2023-03-21T06:42:45.910Z,6.78
2023-03-21T06:43:45.696Z,6.83
2023-03-21T06:44:45.880Z,6.83
2023-03-21T06:45:45.587Z,6.95
2023-03-21T06:46:45.655Z,7.01
2023-03-21T06:47:45.514Z,7.04
2023-03-21T06:48:45.688Z,7.11
2023-03-21T06:49:45.562Z,7.14
2023-03-21T06:50:45.414Z,7.13
2023-03-21T06:51:45.305Z,7.21
2023-03-21T06:52:45.328Z,7.28
2023-03-21T06:53:45.208Z,7.28
2023-03-21T06:54:45.165Z,7.29
2023-03-21T06:55:45.240Z,7.44
2023-03-21T06:56:45.171Z,7.46
2023-03-21T06:57:45.051Z,7.55
2023-03-21T06:58:44.981Z,7.55
2023-03-21T06:59:46.296Z,7.53
2023-03-21T07:00:44.921Z,7.59
2023-03-21T07:01:44.879Z,7.64
2023-03-21T07:02:44.844Z,7.74
2023-03-21T07:03:44.899Z,7.77
2023-03-21T07:04:44.849Z,7.85
2023-03-21T07:05:44.902Z,7.85
2023-03-21T07:06:44.606Z,7.95
2023-03-21T07:07:44.633Z,7.99
2023-03-21T07:08:44.507Z,7.91
2023-03-21T07:09:44.730Z,8.05
2023-03-21T07:10:45.429Z,8.05
2023-03-21T07:11:44.368Z,8.05
2023-03-21T07:12:44.326Z,8.13
2023-03-21T07:13:44.467Z,8.17
2023-03-21T07:14:44.227Z,8.24
2023-03-21T07:15:44.374Z,8.28
2023-03-21T07:16:44.207Z,8.27
2023-03-21T07:17:44.910Z,8.34
2023-03-21T07:18:44.044Z,8.32
2023-03-21T07:19:45.125Z,8.41
2023-03-21T07:20:43.954Z,8.52
2023-03-21T07:21:44.225Z,8.41
2023-03-21T07:22:44.061Z,8.35
2023-03-21T07:23:43.840Z,8.46
2023-03-21T07:24:50.901Z,8.63
2023-03-21T07:25:43.756Z,8.74
2023-03-21T07:26:44.759Z,8.72
2023-03-21T07:27:43.892Z,8.77
2023-03-21T07:28:43.582Z,8.78
2023-03-21T07:29:43.545Z,8.82
2023-03-21T07:30:43.657Z,9.03
2023-03-21T07:31:43.647Z,9.08
2023-03-21T07:32:43.572Z,9.22
2023-03-21T07:33:43.359Z,9.30
2023-03-21T07:34:43.300Z,9.39
2023-03-21T07:35:43.308Z,9.45
2023-03-21T07:36:43.601Z,9.52
2023-03-21T07:37:43.163Z,9.77
2023-03-21T07:38:43.202Z,9.87
2023-03-21T07:39:43.175Z,9.95
2023-03-21T07:40:43.022Z,10.02
2023-03-21T07:41:43.069Z,10.10
2023-03-21T07:42:43.043Z,10.23
2023-03-21T07:43:42.895Z,10.36
2023-03-21T07:44:42.939Z,10.42
2023-03-21T07:45:42.854Z,10.49
2023-03-21T07:46:42.753Z,10.65
2023-03-21T07:47:42.789Z,10.68
2023-03-21T07:48:42.662Z,10.79
2023-03-21T07:49:42.770Z,10.92
2023-03-21T07:50:42.844Z,10.95
2023-03-21T07:51:42.528Z,10.97
2023-03-21T07:52:42.476Z,10.98
2023-03-21T07:53:42.489Z,11.07
2023-03-21T07:54:42.388Z,11.05
2023-03-21T07:55:42.519Z,11.16
2023-03-21T07:56:42.353Z,11.10
2023-03-21T07:57:42.260Z,11.27
2023-03-21T07:58:42.323Z,11.37
2023-03-21T07:59:42.170Z,11.53
2023-03-21T08:00:43.262Z,11.67
2023-03-21T08:01:42.076Z,11.65
2023-03-21T08:02:42.301Z,11.85
2023-03-21T08:03:42.039Z,11.95
2023-03-21T08:04:42.065Z,11.89
2023-03-21T08:05:42.224Z,12.05
2023-03-21T08:06:42.061Z,12.26
2023-03-21T08:07:41.817Z,12.28
2023-03-21T08:08:41.791Z,12.37
2023-03-21T08:09:41.718Z,12.58
2023-03-21T08:10:41.910Z,12.75
2023-03-21T08:11:41.627Z,12.80
2023-03-21T08:12:42.734Z,12.98
2023-03-21T08:13:57.177Z,13.09
2023-03-21T08:14:41.495Z,13.20
2023-03-21T08:15:49.217Z,13.21
2023-03-21T08:16:41.471Z,13.36
2023-03-21T08:17:49.255Z,13.45
2023-03-21T08:18:42.473Z,13.60
2023-03-21T08:19:41.353Z,13.65
2023-03-21T08:20:41.233Z,13.75
2023-03-21T08:21:41.187Z,13.78
2023-03-21T08:22:41.270Z,13.87
2023-03-21T08:23:41.102Z,13.85
2023-03-21T08:24:41.069Z,13.89
2023-03-21T08:25:41.148Z,13.83
2023-03-21T08:26:41.213Z,14.01
2023-03-21T08:27:40.971Z,14.03
2023-03-21T08:28:41.025Z,14.13
2023-03-21T08:29:40.838Z,14.18
2023-03-21T08:30:41.252Z,14.23
2023-03-21T08:31:40.826Z,14.38
2023-03-21T08:32:40.709Z,14.44
2023-03-21T08:33:40.774Z,14.49
2023-03-21T08:34:40.633Z,14.58
2023-03-21T08:35:41.244Z,14.78
2023-03-21T08:36:40.568Z,14.78
2023-03-21T08:37:40.498Z,14.94
2023-03-21T08:38:40.736Z,14.99
2023-03-21T08:39:41.565Z,15.05
2023-03-21T08:40:40.369Z,15.23
2023-03-21T08:41:40.393Z,15.33
2023-03-21T08:42:40.303Z,15.52
2023-03-21T08:43:40.234Z,15.44
2023-03-21T08:44:41.465Z,15.54
2023-03-21T08:45:40.343Z,15.67
2023-03-21T08:46:40.562Z,15.69
2023-03-21T08:47:40.077Z,15.87
2023-03-21T08:48:40.021Z,16.03
2023-03-21T08:49:39.996Z,16.02
2023-03-21T08:50:40.147Z,16.00
2023-03-21T08:51:39.933Z,15.99
2023-03-21T08:52:40.061Z,16.12
2023-03-21T08:53:39.821Z,16.02
2023-03-21T08:54:39.788Z,16.13
2023-03-21T08:55:39.871Z,16.26
2023-03-21T08:56:41.116Z,16.29
2023-03-21T08:57:39.645Z,16.43
2023-03-21T08:58:39.672Z,16.40
2023-03-21T08:59:39.574Z,16.44
2023-03-21T09:00:39.515Z,16.50
2023-03-21T09:01:40.654Z,16.49
2023-03-21T09:02:39.460Z,16.43
2023-03-21T09:03:39.605Z,16.46
2023-03-21T09:04:39.411Z,16.37
2023-03-21T09:05:39.851Z,16.21
2023-03-21T09:06:39.292Z,16.25
2023-03-21T09:07:39.455Z,16.18
2023-03-21T09:08:39.197Z,16.18
2023-03-21T09:09:39.449Z,16.31
2023-03-21T09:10:39.103Z,16.24
2023-03-21T09:11:39.065Z,16.31
2023-03-21T09:12:39.021Z,16.32
2023-03-21T09:13:39.097Z,16.32
2023-03-21T09:14:38.937Z,16.21
2023-03-21T09:15:39.318Z,16.41
2023-03-21T09:16:38.846Z,16.61
2023-03-21T09:17:38.811Z,16.69
2023-03-21T09:18:39.949Z,16.82
2023-03-21T09:19:38.726Z,17.05
2023-03-21T09:20:38.734Z,17.20
2023-03-21T09:21:38.998Z,17.39
2023-03-21T09:22:40.225Z,17.53
2023-03-21T09:23:38.558Z,17.65
2023-03-21T09:24:38.756Z,17.73
2023-03-21T09:25:38.669Z,17.76
2023-03-21T09:26:38.576Z,17.84
2023-03-21T09:27:38.422Z,17.97
2023-03-21T09:28:38.359Z,18.19
2023-03-21T09:29:38.544Z,18.36
2023-03-21T09:30:38.495Z,18.58
2023-03-21T09:31:38.288Z,18.70
2023-03-21T09:32:38.277Z,18.73
2023-03-21T09:33:38.182Z,18.85
2023-03-21T09:34:38.112Z,19.00
2023-03-21T09:35:38.320Z,19.01
2023-03-21T09:36:38.152Z,19.08
2023-03-21T09:37:37.992Z,19.12
2023-03-21T09:38:38.535Z,19.05
2023-03-21T09:39:37.908Z,18.92
2023-03-21T09:40:37.875Z,18.96
2023-03-21T09:41:37.942Z,18.83
2023-03-21T09:42:37.785Z,18.76
2023-03-21T09:43:37.945Z,18.76
2023-03-21T09:44:37.745Z,18.63
2023-03-21T09:45:38.271Z,18.86
2023-03-21T09:46:37.722Z,18.74
2023-03-21T09:47:37.852Z,18.78
2023-03-21T09:48:39.678Z,18.96
2023-03-21T09:49:37.779Z,19.05
2023-03-21T09:50:37.477Z,19.04
2023-03-21T09:51:37.430Z,19.19
2023-03-21T09:52:37.436Z,19.32
2023-03-21T09:53:37.505Z,19.42
2023-03-21T09:54:37.311Z,19.55
2023-03-21T09:55:37.724Z,19.82
2023-03-21T09:56:37.228Z,19.93
2023-03-21T09:57:37.199Z,20.07
2023-03-21T09:58:37.475Z,20.22
2023-03-21T09:59:37.110Z,20.08
2023-03-21T10:00:37.186Z,20.03
2023-03-21T10:01:37.039Z,20.11
2023-03-21T10:02:37.091Z,20.19
2023-03-21T10:03:36.953Z,20.29
2023-03-21T10:04:37.142Z,20.19
2023-03-21T10:05:37.099Z,20.26
2023-03-21T10:06:36.931Z,20.30
2023-03-21T10:07:36.796Z,20.02
2023-03-21T10:08:36.766Z,19.99
2023-03-21T10:09:36.712Z,20.03
2023-03-21T10:10:38.297Z,20.24
2023-03-21T10:11:36.652Z,20.22
2023-03-21T10:12:36.776Z,20.27
2023-03-21T10:13:36.554Z,20.22
2023-03-21T10:14:36.519Z,20.07
2023-03-21T10:15:36.692Z,20.04
2023-03-21T10:16:36.828Z,20.10
2023-03-21T10:17:36.400Z,20.29
2023-03-21T10:18:36.554Z,20.40
2023-03-21T10:19:36.327Z,20.70
2023-03-21T10:20:36.290Z,20.74
2023-03-21T10:21:59.297Z,20.95
2023-03-21T10:22:36.372Z,21.10
2023-03-21T10:23:36.324Z,21.28
2023-03-21T10:24:36.138Z,21.41
2023-03-21T10:25:36.552Z,21.47
2023-03-21T10:26:36.063Z,21.48
2023-03-21T10:27:37.141Z,21.80
2023-03-21T10:28:49.859Z,21.89
2023-03-21T10:29:36.015Z,21.85
2023-03-21T10:30:35.944Z,21.99
2023-03-21T10:31:37.053Z,21.88
2023-03-21T10:32:35.898Z,21.96
2023-03-21T10:33:35.967Z,22.06
2023-03-21T10:34:35.827Z,22.06
2023-03-21T10:35:36.075Z,22.07
2023-03-21T10:36:35.680Z,22.15
2023-03-21T10:37:35.642Z,22.41
2023-03-21T10:38:35.858Z,22.56
2023-03-21T10:39:35.566Z,22.93
2023-03-21T10:40:35.758Z,23.16
2023-03-21T10:41:35.511Z,23.37
2023-03-21T10:42:35.540Z,23.58
2023-03-21T10:43:35.448Z,24.03
2023-03-21T10:44:35.629Z,24.47
2023-03-21T10:45:35.445Z,24.85
2023-03-21T10:46:36.360Z,24.96
2023-03-21T10:47:35.436Z,25.09
2023-03-21T10:48:35.352Z,24.81
2023-03-21T10:49:40.593Z,24.85
2023-03-21T10:50:35.244Z,24.99
2023-03-21T10:51:35.174Z,25.07
2023-03-21T10:52:35.246Z,25.12
2023-03-21T10:53:36.105Z,25.07
2023-03-21T10:54:35.122Z,24.97
2023-03-21T10:55:35.005Z,24.97
2023-03-21T10:56:35.135Z,24.97
2023-03-21T10:57:34.931Z,24.81
2023-03-21T10:58:35.114Z,24.31
2023-03-21T10:59:34.868Z,24.09
2023-03-21T11:00:34.822Z,24.04
2023-03-21T11:01:35.253Z,24.06
2023-03-21T11:02:34.845Z,24.22
2023-03-21T11:03:34.844Z,24.53
2023-03-21T11:04:34.688Z,24.86
2023-03-21T11:05:34.898Z,25.18
2023-03-21T11:06:34.617Z,25.30
2023-03-21T11:07:34.664Z,25.29
2023-03-21T11:08:34.771Z,25.37
2023-03-21T11:09:34.673Z,25.49
2023-03-21T11:10:34.490Z,25.55
2023-03-21T11:11:34.442Z,25.58
2023-03-21T11:12:34.405Z,25.73
2023-03-21T11:13:34.400Z,26.10
2023-03-21T11:14:34.386Z,26.31
2023-03-21T11:15:34.416Z,26.68
2023-03-21T11:16:34.371Z,26.78
2023-03-21T11:17:34.236Z,26.85
2023-03-21T11:18:34.335Z,27.04
2023-03-21T11:19:34.340Z,27.08
2023-03-21T11:20:34.136Z,27.13
2023-03-21T11:21:34.189Z,27.15
2023-03-21T11:22:34.076Z,27.03
2023-03-21T11:23:34.177Z,26.67
2023-03-21T11:24:34.024Z,26.52
2023-03-21T11:25:34.219Z,26.33
2023-03-21T11:26:33.943Z,26.27
2023-03-21T11:27:34.037Z,26.29
2023-03-21T11:28:34.052Z,26.49
2023-03-21T11:29:33.841Z,26.61
2023-03-21T11:30:33.987Z,26.76
2023-03-21T11:31:33.805Z,27.23
2023-03-21T11:32:34.026Z,27.15
2023-03-21T11:33:33.714Z,27.22
2023-03-21T11:34:33.664Z,27.10
2023-03-21T11:35:33.630Z,26.88
2023-03-21T11:36:33.767Z,26.73
2023-03-21T11:37:33.661Z,26.59
2023-03-21T11:38:33.608Z,26.39
2023-03-21T11:39:33.494Z,26.41
2023-03-21T11:40:33.457Z,26.51
2023-03-21T11:41:33.587Z,26.39
2023-03-21T11:42:33.416Z,26.49
2023-03-21T11:43:33.572Z,26.61
2023-03-21T11:44:33.510Z,26.60
2023-03-21T11:45:33.290Z,26.33
2023-03-21T11:46:33.288Z,26.52
2023-03-21T11:47:33.467Z,26.41
2023-03-21T11:48:33.192Z,26.31
2023-03-21T11:49:33.275Z,26.44
2023-03-21T11:50:33.143Z,26.39
2023-03-21T11:51:33.093Z,26.49
2023-03-21T11:52:33.250Z,26.70
2023-03-21T11:53:33.031Z,26.39
2023-03-21T11:54:33.110Z,26.45
2023-03-21T11:55:32.940Z,26.44
2023-03-21T11:56:33.178Z,26.10
2023-03-21T11:57:32.877Z,26.06
2023-03-21T11:58:33.074Z,26.10
2023-03-21T11:59:32.808Z,26.04
2023-03-21T12:00:32.949Z,26.19
2023-03-21T12:01:32.769Z,26.15
2023-03-21T12:02:32.918Z,26.15
2023-03-21T12:03:41.471Z,26.11
2023-03-21T12:04:32.668Z,26.04
2023-03-21T12:05:32.793Z,25.99
2023-03-21T12:06:32.564Z,25.92
2023-03-21T12:07:35.052Z,25.89
2023-03-21T12:08:32.544Z,25.96
2023-03-21T12:09:32.456Z,26.13
2023-03-21T12:10:32.668Z,26.15
2023-03-21T12:11:32.386Z,26.15
2023-03-21T12:12:38.960Z,25.83
2023-03-21T12:13:32.344Z,25.67
2023-03-21T12:14:32.287Z,25.63
2023-03-21T12:15:32.278Z,25.44
2023-03-21T12:16:32.348Z,25.41
2023-03-21T12:17:32.173Z,25.19
2023-03-21T12:18:32.377Z,25.15
2023-03-21T12:19:32.374Z,25.18
2023-03-21T12:20:33.157Z,25.24
2023-03-21T12:21:32.038Z,25.11
2023-03-21T12:22:32.132Z,25.03
2023-03-21T12:23:32.014Z,25.16
2023-03-21T12:24:32.207Z,25.00
2023-03-21T12:25:32.048Z,24.68
2023-03-21T12:26:31.861Z,24.47
2023-03-21T12:27:32.944Z,24.51
2023-03-21T12:28:33.260Z,24.32
2023-03-21T12:29:32.856Z,24.21
2023-03-21T12:30:32.005Z,23.99
2023-03-21T12:31:31.751Z,23.94
2023-03-21T12:32:32.518Z,24.03
2023-03-21T12:33:31.701Z,24.09
2023-03-21T12:34:31.566Z,24.22
2023-03-21T12:35:31.722Z,24.07
2023-03-21T12:36:31.523Z,24.09
2023-03-21T12:37:31.724Z,24.18
2023-03-21T12:38:31.717Z,23.92
2023-03-21T12:39:31.380Z,23.52
2023-03-21T12:40:31.496Z,23.28
2023-03-21T12:41:31.310Z,23.16
2023-03-21T12:42:31.270Z,23.08
2023-03-21T12:43:31.260Z,23.20
2023-03-21T12:44:31.361Z,23.36
2023-03-21T12:45:37.373Z,23.63
2023-03-21T12:46:31.341Z,23.85
2023-03-21T12:47:31.193Z,23.95
2023-03-21T12:48:31.139Z,24.04
2023-03-21T12:49:31.021Z,24.01
2023-03-21T12:50:31.153Z,24.04
2023-03-21T12:51:30.956Z,23.99
2023-03-21T12:52:31.168Z,23.99
2023-03-21T12:53:32.048Z,24.04
2023-03-21T12:54:30.836Z,24.22
2023-03-21T12:55:30.888Z,23.99
2023-03-21T12:56:30.757Z,23.99
2023-03-21T12:57:30.841Z,23.88
2023-03-21T12:58:30.711Z,23.84
2023-03-21T12:59:30.662Z,23.92
2023-03-21T13:00:30.686Z,24.01
2023-03-21T13:01:30.822Z,24.32
2023-03-21T13:02:30.556Z,24.51
2023-03-21T13:03:39.505Z,24.50
2023-03-21T13:04:30.545Z,24.71
2023-03-21T13:05:30.440Z,24.86
2023-03-21T13:06:30.404Z,25.09
2023-03-21T13:07:30.394Z,24.92
2023-03-21T13:08:30.325Z,24.48
2023-03-21T13:09:37.287Z,24.74
2023-03-21T13:10:30.258Z,24.82
2023-03-21T13:11:30.223Z,24.96